createdAt,value
2022-09-07T00:00:54.270Z,228.00
2022-09-07T00:01:54.336Z,228.00
2022-09-07T00:02:54.371Z,229.00
2022-09-07T00:03:54.289Z,230.00
2022-09-07T00:04:54.243Z,230.00
2022-09-07T00:05:54.205Z,230.00
2022-09-07T00:06:54.221Z,230.00
2022-09-07T00:07:54.205Z,229.00
2022-09-07T00:08:54.206Z,228.00
2022-09-07T00:09:54.160Z,228.00
2022-09-07T00:10:54.153Z,229.00
2022-09-07T00:11:54.166Z,228.00
2022-09-07T00:12:54.150Z,229.00
2022-09-07T00:13:54.115Z,229.00
2022-09-07T00:14:54.106Z,229.00
2022-09-07T00:15:54.139Z,228.00
2022-09-07T00:16:54.138Z,229.00
2022-09-07T00:17:54.080Z,231.00
2022-09-07T00:18:54.062Z,233.00
2022-09-07T00:19:54.043Z,233.00
2022-09-07T00:20:54.021Z,233.00
2022-09-07T00:21:54.045Z,233.00
2022-09-07T00:22:56.626Z,233.00
2022-09-07T00:23:53.987Z,233.00
2022-09-07T00:24:53.948Z,235.00
2022-09-07T00:25:54.261Z,233.00
2022-09-07T00:26:53.918Z,232.00
2022-09-07T00:27:53.918Z,233.00
2022-09-07T00:28:53.904Z,236.00
2022-09-07T00:29:53.900Z,236.00
2022-09-07T00:30:53.892Z,238.00
2022-09-07T00:31:53.913Z,239.00
2022-09-07T00:32:53.869Z,238.00
2022-09-07T00:33:53.853Z,237.00
2022-09-07T00:34:53.834Z,236.00
2022-09-07T00:35:53.802Z,237.00
2022-09-07T00:36:53.816Z,235.00
2022-09-07T00:37:53.781Z,236.00
2022-09-07T00:38:53.777Z,234.00
2022-09-07T00:39:53.837Z,235.00
2022-09-07T00:40:53.732Z,237.00
2022-09-07T00:41:53.739Z,234.00
2022-09-07T00:42:53.722Z,234.00
2022-09-07T00:43:53.746Z,235.00
2022-09-07T00:44:53.680Z,233.00
2022-09-07T00:45:53.694Z,233.00
2022-09-07T00:46:53.730Z,235.00
2022-09-07T00:47:53.690Z,236.00
2022-09-07T00:48:53.648Z,234.00
2022-09-07T00:49:53.646Z,235.00
2022-09-07T00:50:53.609Z,234.00
2022-09-07T00:51:53.605Z,233.00
2022-09-07T00:52:53.581Z,231.00
2022-09-07T00:53:53.600Z,232.00
2022-09-07T00:54:53.567Z,234.00
2022-09-07T00:55:53.540Z,234.00
2022-09-07T00:56:53.587Z,235.00
2022-09-07T00:57:56.674Z,236.00
2022-09-07T00:58:53.521Z,237.00
2022-09-07T00:59:53.521Z,237.00
2022-09-07T01:00:53.470Z,236.00
2022-09-07T01:01:53.589Z,236.00
2022-09-07T01:02:53.588Z,236.00
2022-09-07T01:03:53.470Z,236.00
2022-09-07T01:04:53.431Z,238.00
2022-09-07T01:05:53.433Z,237.00
2022-09-07T01:06:53.410Z,236.00
2022-09-07T01:07:53.402Z,236.00
2022-09-07T01:08:53.393Z,234.00
2022-09-07T01:09:53.403Z,233.00
2022-09-07T01:10:53.335Z,231.00
2022-09-07T01:11:53.325Z,229.00
2022-09-07T01:12:53.345Z,228.00
2022-09-07T01:13:53.327Z,231.00
2022-09-07T01:14:53.313Z,230.00
2022-09-07T01:15:53.342Z,230.00
2022-09-07T01:16:53.318Z,231.00
2022-09-07T01:17:53.249Z,230.00
2022-09-07T01:18:53.240Z,232.00
2022-09-07T01:19:53.244Z,231.00
2022-09-07T01:20:53.221Z,231.00
2022-09-07T01:21:53.203Z,233.00
2022-09-07T01:22:53.199Z,234.00
2022-09-07T01:23:53.173Z,235.00
2022-09-07T01:24:53.175Z,235.00
2022-09-07T01:25:53.208Z,234.00
2022-09-07T01:26:53.169Z,234.00
2022-09-07T01:27:53.113Z,237.00
2022-09-07T01:28:53.111Z,236.00
2022-09-07T01:29:53.124Z,235.00
2022-09-07T01:30:53.121Z,234.00
2022-09-07T01:31:53.118Z,233.00
2022-09-07T01:32:53.099Z,235.00
2022-09-07T01:33:53.089Z,237.00
2022-09-07T01:34:53.088Z,237.00
2022-09-07T01:35:53.068Z,235.00
2022-09-07T01:36:53.060Z,234.00
2022-09-07T01:37:56.921Z,236.00
2022-09-07T01:38:53.068Z,235.00
2022-09-07T01:39:53.086Z,234.00
2022-09-07T01:40:52.971Z,235.00
2022-09-07T01:41:52.965Z,237.00
2022-09-07T01:42:52.917Z,239.00
2022-09-07T01:43:52.937Z,235.00
2022-09-07T01:44:52.913Z,234.00
2022-09-07T01:45:52.958Z,233.00
2022-09-07T01:46:52.883Z,233.00
2022-09-07T01:47:52.872Z,231.00
2022-09-07T01:48:52.845Z,232.00
2022-09-07T01:49:52.848Z,231.00
2022-09-07T01:50:52.806Z,229.00
2022-09-07T01:51:52.865Z,232.00
2022-09-07T01:52:55.845Z,233.00
2022-09-07T01:53:52.806Z,232.00
2022-09-07T01:54:52.791Z,232.00
2022-09-07T01:55:52.756Z,232.00
2022-09-07T01:56:52.726Z,233.00
2022-09-07T01:57:52.714Z,234.00
2022-09-07T01:58:52.728Z,235.00
2022-09-07T01:59:52.699Z,235.00
2022-09-07T02:00:52.716Z,234.00
2022-09-07T02:01:52.754Z,232.00
2022-09-07T02:02:52.726Z,230.00
2022-09-07T02:03:52.636Z,228.00
2022-09-07T02:04:52.652Z,228.00
2022-09-07T02:05:52.603Z,232.00
2022-09-07T02:06:52.629Z,233.00
2022-09-07T02:07:52.607Z,234.00
2022-09-07T02:08:52.576Z,235.00
2022-09-07T02:09:52.580Z,235.00
2022-09-07T02:10:52.589Z,237.00
2022-09-07T02:11:52.540Z,234.00
2022-09-07T02:12:52.521Z,233.00
2022-09-07T02:13:52.525Z,235.00
2022-09-07T02:14:52.916Z,227.00
2022-09-07T02:15:52.542Z,227.00
2022-09-07T02:16:52.492Z,234.00
2022-09-07T02:17:52.446Z,232.00
2022-09-07T02:18:52.438Z,231.00
2022-09-07T02:19:52.451Z,232.00
2022-09-07T02:20:52.861Z,232.00
2022-09-07T02:21:52.395Z,232.00
2022-09-07T02:22:52.416Z,234.00
2022-09-07T02:23:52.399Z,237.00
2022-09-07T02:24:52.394Z,238.00
2022-09-07T02:25:52.388Z,238.00
2022-09-07T02:26:52.374Z,238.00
2022-09-07T02:27:52.352Z,239.00
2022-09-07T02:28:52.306Z,240.00
2022-09-07T02:29:52.293Z,240.00
2022-09-07T02:30:52.347Z,241.00
2022-09-07T02:31:52.257Z,241.00
2022-09-07T02:32:52.271Z,240.00
2022-09-07T02:33:52.302Z,238.00
2022-09-07T02:34:52.263Z,236.00
2022-09-07T02:35:52.203Z,233.00
2022-09-07T02:36:52.239Z,234.00
2022-09-07T02:37:52.220Z,234.00
2022-09-07T02:38:52.173Z,234.00
2022-09-07T02:39:52.213Z,234.00
2022-09-07T02:40:52.191Z,235.00
2022-09-07T02:41:52.138Z,236.00
2022-09-07T02:42:55.813Z,236.00
2022-09-07T02:43:52.114Z,237.00
2022-09-07T02:44:52.093Z,238.00
2022-09-07T02:45:52.127Z,237.00
2022-09-07T02:46:52.107Z,237.00
2022-09-07T02:47:52.054Z,237.00
2022-09-07T02:48:52.045Z,239.00
2022-09-07T02:49:52.062Z,239.00
2022-09-07T02:50:52.015Z,239.00
2022-09-07T02:51:52.009Z,240.00
2022-09-07T02:52:52.019Z,240.00
2022-09-07T02:53:51.997Z,239.00
2022-09-07T02:54:51.975Z,239.00
2022-09-07T02:55:51.964Z,238.00
2022-09-07T02:56:51.928Z,239.00
2022-09-07T02:57:51.935Z,238.00
2022-09-07T02:58:51.925Z,240.00
2022-09-07T02:59:51.915Z,240.00
2022-09-07T03:00:51.879Z,240.00
2022-09-07T03:01:51.953Z,239.00
2022-09-07T03:02:51.981Z,238.00
2022-09-07T03:03:51.898Z,238.00
2022-09-07T03:04:51.828Z,234.00
2022-09-07T03:05:51.824Z,232.00
2022-09-07T03:06:51.836Z,233.00
2022-09-07T03:07:51.802Z,234.00
2022-09-07T03:08:51.777Z,236.00
2022-09-07T03:09:51.756Z,239.00
2022-09-07T03:10:51.779Z,239.00
2022-09-07T03:11:51.723Z,239.00
2022-09-07T03:12:51.753Z,241.00
2022-09-07T03:13:51.727Z,244.00
2022-09-07T03:14:51.712Z,246.00
2022-09-07T03:15:55.744Z,248.00
2022-09-07T03:16:51.990Z,247.00
2022-09-07T03:17:51.668Z,246.00
2022-09-07T03:18:51.659Z,245.00
2022-09-07T03:19:51.653Z,184.00
2022-09-07T03:20:51.637Z,179.00
2022-09-07T03:21:51.615Z,178.00
2022-09-07T03:22:51.598Z,173.00
2022-09-07T03:23:52.023Z,174.00
2022-09-07T03:24:51.575Z,167.00
2022-09-07T03:25:51.589Z,172.00
2022-09-07T03:26:51.534Z,168.00
2022-09-07T03:27:51.528Z,165.00
2022-09-07T03:28:51.517Z,163.00
2022-09-07T03:29:51.517Z,157.00
2022-09-07T03:30:51.548Z,156.00
2022-09-07T03:31:51.495Z,158.00
2022-09-07T03:32:51.480Z,158.00
2022-09-07T03:33:51.458Z,154.00
2022-09-07T03:34:51.459Z,159.00
2022-09-07T03:35:51.448Z,153.00
2022-09-07T03:36:51.419Z,150.00
2022-09-07T03:37:51.386Z,148.00
2022-09-07T03:38:51.378Z,149.00
2022-09-07T03:39:51.408Z,147.00
2022-09-07T03:40:51.356Z,149.00
2022-09-07T03:41:51.355Z,148.00
2022-09-07T03:42:51.343Z,146.00
2022-09-07T03:43:51.327Z,148.00
2022-09-07T03:44:51.324Z,154.00
2022-09-07T03:45:51.385Z,152.00
2022-09-07T03:46:51.285Z,152.00
2022-09-07T03:47:51.272Z,154.00
2022-09-07T03:48:51.268Z,150.00
2022-09-07T03:49:51.228Z,152.00
2022-09-07T03:50:51.237Z,151.00
2022-09-07T03:51:51.212Z,150.00
2022-09-07T03:52:51.214Z,153.00
2022-09-07T03:53:51.179Z,153.00
2022-09-07T03:54:51.220Z,153.00
2022-09-07T03:55:51.146Z,153.00
2022-09-07T03:56:51.168Z,151.00
2022-09-07T03:57:51.159Z,150.00
2022-09-07T03:58:51.107Z,151.00
2022-09-07T03:59:51.117Z,140.00
2022-09-07T04:00:51.083Z,146.00
2022-09-07T04:01:51.128Z,150.00
2022-09-07T04:02:51.127Z,147.00
2022-09-07T04:03:51.054Z,147.00
2022-09-07T04:04:51.036Z,146.00
2022-09-07T04:05:51.026Z,154.00
2022-09-07T04:06:51.032Z,157.00
2022-09-07T04:07:51.029Z,154.00
2022-09-07T04:08:50.975Z,155.00
2022-09-07T04:09:50.969Z,151.00
2022-09-07T04:10:50.959Z,161.00
2022-09-07T04:11:50.989Z,152.00
2022-09-07T04:12:50.943Z,152.00
2022-09-07T04:13:50.946Z,155.00
2022-09-07T04:14:50.945Z,154.00
2022-09-07T04:15:53.801Z,158.00
2022-09-07T04:16:51.058Z,159.00
2022-09-07T04:17:50.877Z,155.00
2022-09-07T04:18:50.878Z,154.00
2022-09-07T04:19:50.861Z,154.00
2022-09-07T04:20:50.850Z,155.00
2022-09-07T04:21:50.802Z,156.00
2022-09-07T04:22:54.213Z,161.00
2022-09-07T04:23:50.770Z,156.00
2022-09-07T04:24:50.765Z,158.00
2022-09-07T04:25:50.767Z,156.00
2022-09-07T04:26:50.765Z,157.00
2022-09-07T04:27:50.751Z,158.00
2022-09-07T04:28:50.729Z,152.00
2022-09-07T04:29:50.693Z,152.00
2022-09-07T04:30:50.744Z,157.00
2022-09-07T04:31:50.678Z,158.00
2022-09-07T04:32:50.684Z,157.00
2022-09-07T04:33:50.669Z,149.00
2022-09-07T04:34:50.630Z,153.00
2022-09-07T04:35:50.628Z,153.00
2022-09-07T04:36:50.638Z,154.00
2022-09-07T04:37:50.592Z,156.00
2022-09-07T04:38:50.581Z,154.00
2022-09-07T04:39:50.646Z,151.00
2022-09-07T04:40:50.602Z,157.00
2022-09-07T04:41:50.554Z,157.00
2022-09-07T04:42:50.523Z,154.00
2022-09-07T04:43:50.506Z,153.00
2022-09-07T04:44:50.541Z,160.00
2022-09-07T04:45:50.599Z,158.00
2022-09-07T04:46:50.510Z,159.00
2022-09-07T04:47:50.486Z,157.00
2022-09-07T04:48:50.473Z,159.00
2022-09-07T04:49:50.473Z,161.00
2022-09-07T04:50:50.441Z,160.00
2022-09-07T04:51:50.399Z,154.00
2022-09-07T04:52:50.401Z,151.00
2022-09-07T04:53:50.389Z,152.00
2022-09-07T04:54:50.389Z,154.00
2022-09-07T04:55:50.367Z,163.00
2022-09-07T04:56:50.364Z,162.00
2022-09-07T04:57:50.332Z,156.00
2022-09-07T04:58:50.347Z,151.00
2022-09-07T04:59:50.294Z,154.00
2022-09-07T05:00:50.350Z,155.00
2022-09-07T05:01:50.283Z,153.00
2022-09-07T05:02:50.343Z,160.00
2022-09-07T05:03:50.260Z,161.00
2022-09-07T05:04:50.240Z,162.00
2022-09-07T05:05:50.250Z,166.00
2022-09-07T05:06:50.218Z,171.00
2022-09-07T05:07:50.207Z,168.00
2022-09-07T05:08:50.177Z,172.00
2022-09-07T05:09:50.179Z,172.00
2022-09-07T05:10:50.168Z,178.00
2022-09-07T05:11:50.173Z,175.00
2022-09-07T05:12:50.145Z,174.00
2022-09-07T05:13:50.107Z,173.00
2022-09-07T05:14:50.152Z,178.00
2022-09-07T05:15:50.077Z,190.00
2022-09-07T05:16:50.224Z,190.00
2022-09-07T05:17:50.069Z,183.00
2022-09-07T05:18:50.068Z,184.00
2022-09-07T05:19:50.042Z,196.00
2022-09-07T05:20:50.044Z,215.00
2022-09-07T05:21:50.030Z,210.00
2022-09-07T05:22:49.990Z,211.00
2022-09-07T05:23:49.993Z,209.00
2022-09-07T05:24:49.983Z,212.00
2022-09-07T05:25:49.963Z,207.00
2022-09-07T05:26:49.960Z,208.00
2022-09-07T05:27:49.954Z,226.00
2022-09-07T05:28:50.422Z,221.00
2022-09-07T05:30:06.157Z,227.00
2022-09-07T05:31:49.916Z,229.00
2022-09-07T05:32:49.859Z,223.00
2022-09-07T05:34:52.841Z,225.00
2022-09-07T05:35:49.831Z,222.00
2022-09-07T05:36:49.826Z,221.00
2022-09-07T05:37:49.847Z,222.00
2022-09-07T05:38:49.798Z,219.00
2022-09-07T05:39:49.809Z,226.00
2022-09-07T05:40:49.763Z,221.00
2022-09-07T05:41:49.735Z,226.00
2022-09-07T05:42:49.726Z,223.00
2022-09-07T05:44:49.744Z,214.00
2022-09-07T05:45:49.758Z,220.00
2022-09-07T05:46:49.667Z,226.00
2022-09-07T05:47:49.648Z,223.00
2022-09-07T05:48:49.646Z,220.00
2022-09-07T05:49:51.933Z,219.00
2022-09-07T05:50:49.679Z,232.00
2022-09-07T05:51:49.628Z,224.00
2022-09-07T05:52:49.589Z,231.00
2022-09-07T05:53:49.601Z,221.00
2022-09-07T05:54:49.584Z,222.00
2022-09-07T05:55:49.563Z,226.00
2022-09-07T05:56:49.555Z,233.00
2022-09-07T05:57:49.541Z,228.00
2022-09-07T05:58:49.550Z,222.00
2022-09-07T05:59:49.511Z,226.00
2022-09-07T06:00:49.492Z,232.00
2022-09-07T06:01:49.641Z,231.00
2022-09-07T06:02:49.622Z,229.00
2022-09-07T06:03:49.446Z,225.00
2022-09-07T06:04:49.440Z,222.00
2022-09-07T06:05:49.450Z,224.00
2022-09-07T06:07:17.687Z,226.00
2022-09-07T06:07:49.409Z,231.00
2022-09-07T06:08:49.381Z,229.00
2022-09-07T06:10:49.383Z,229.00
2022-09-07T06:11:49.364Z,232.00
2022-09-07T06:12:49.604Z,233.00
2022-09-07T06:13:49.342Z,234.00
2022-09-07T06:14:49.315Z,236.00
2022-09-07T06:15:49.292Z,237.00
2022-09-07T06:16:49.343Z,238.00
2022-09-07T06:17:49.275Z,241.00
2022-09-07T06:18:49.244Z,240.00
2022-09-07T06:19:49.286Z,241.00
2022-09-07T06:20:49.223Z,244.00
2022-09-07T06:21:49.229Z,244.00
2022-09-07T06:22:49.233Z,242.00
2022-09-07T06:23:49.211Z,243.00
2022-09-07T06:24:49.182Z,242.00
2022-09-07T06:25:49.162Z,242.00
2022-09-07T06:26:49.154Z,242.00
2022-09-07T06:27:49.135Z,244.00
2022-09-07T06:28:51.403Z,243.00
2022-09-07T06:29:49.109Z,243.00
2022-09-07T06:30:49.110Z,240.00
2022-09-07T06:32:49.091Z,240.00
2022-09-07T06:33:49.075Z,241.00
2022-09-07T06:34:49.049Z,240.00
2022-09-07T06:35:49.074Z,240.00
2022-09-07T06:36:49.021Z,240.00
2022-09-07T06:37:49.032Z,237.00
2022-09-07T06:38:49.000Z,238.00
2022-09-07T06:39:49.074Z,239.00
2022-09-07T06:40:49.035Z,242.00
2022-09-07T06:42:04.391Z,246.00
2022-09-07T06:42:48.968Z,245.00
2022-09-07T06:43:48.936Z,243.00
2022-09-07T06:44:48.921Z,241.00
2022-09-07T06:45:48.990Z,239.00
2022-09-07T06:47:04.731Z,237.00
2022-09-07T06:47:48.889Z,237.00
2022-09-07T06:48:48.890Z,237.00
2022-09-07T06:49:48.857Z,238.00
2022-09-07T06:50:48.844Z,237.00
2022-09-07T06:51:48.840Z,240.00
2022-09-07T06:53:49.079Z,240.00
2022-09-07T06:55:48.786Z,243.00
2022-09-07T06:56:48.743Z,244.00
2022-09-07T06:57:48.738Z,242.00
2022-09-07T06:58:48.783Z,243.00
2022-09-07T06:59:48.727Z,244.00
2022-09-07T07:00:48.767Z,242.00
2022-09-07T07:01:48.694Z,243.00
2022-09-07T07:02:48.724Z,241.00
2022-09-07T07:03:48.664Z,240.00
2022-09-07T07:04:48.693Z,239.00
2022-09-07T07:05:48.675Z,238.00
2022-09-07T07:06:48.609Z,239.00
2022-09-07T07:07:48.633Z,239.00
2022-09-07T07:08:48.617Z,238.00
2022-09-07T07:09:48.621Z,237.00
2022-09-07T07:10:48.585Z,238.00
2022-09-07T07:11:48.601Z,239.00
2022-09-07T07:12:48.560Z,239.00
2022-09-07T07:13:48.567Z,238.00
2022-09-07T07:14:48.516Z,239.00
2022-09-07T07:15:48.528Z,239.00
2022-09-07T07:16:48.629Z,239.00
2022-09-07T07:17:56.092Z,237.00
2022-09-07T07:18:48.479Z,238.00
2022-09-07T07:19:48.477Z,237.00
2022-09-07T07:20:48.511Z,236.00
2022-09-07T07:22:10.907Z,236.00
2022-09-07T07:22:48.457Z,236.00
2022-09-07T07:23:48.448Z,239.00
2022-09-07T07:24:48.468Z,239.00
2022-09-07T07:25:48.413Z,240.00
2022-09-07T07:26:48.423Z,240.00
2022-09-07T07:27:48.411Z,242.00
2022-09-07T07:29:04.290Z,240.00
2022-09-07T07:29:48.339Z,241.00
2022-09-07T07:30:48.370Z,241.00
2022-09-07T07:31:48.300Z,240.00
2022-09-07T07:32:48.331Z,241.00
2022-09-07T07:33:48.400Z,240.00
2022-09-07T07:34:48.248Z,238.00
2022-09-07T07:35:48.320Z,237.00
2022-09-07T07:36:48.221Z,235.00
2022-09-07T07:37:48.236Z,236.00
2022-09-07T07:39:03.587Z,237.00
2022-09-07T07:41:57.401Z,238.00
2022-09-07T07:42:48.171Z,241.00
2022-09-07T07:43:48.143Z,241.00
2022-09-07T07:44:48.691Z,242.00
2022-09-07T07:45:55.515Z,244.00
2022-09-07T07:46:48.197Z,244.00
2022-09-07T07:47:48.100Z,242.00
2022-09-07T07:48:48.072Z,242.00
2022-09-07T07:49:48.276Z,243.00
2022-09-07T07:50:48.037Z,243.00
2022-09-07T07:53:41.068Z,242.00
2022-09-07T07:53:48.012Z,242.00
2022-09-07T07:54:48.002Z,241.00
2022-09-07T07:55:48.027Z,241.00
2022-09-07T07:56:47.975Z,244.00
2022-09-07T07:57:48.037Z,246.00
2022-09-07T07:58:47.975Z,246.00
2022-09-07T07:59:47.964Z,247.00
2022-09-07T08:00:56.050Z,246.00
2022-09-07T08:01:48.009Z,248.00
2022-09-07T08:02:47.919Z,248.00
2022-09-07T08:03:47.891Z,245.00
2022-09-07T08:04:47.868Z,245.00
2022-09-07T08:05:47.841Z,245.00
2022-09-07T08:06:47.872Z,243.00
2022-09-07T08:07:47.824Z,244.00
2022-09-07T08:08:47.793Z,244.00
2022-09-07T08:09:47.825Z,245.00
2022-09-07T08:10:47.904Z,244.00
2022-09-07T08:11:47.818Z,243.00
2022-09-07T08:12:47.762Z,243.00
2022-09-07T08:13:47.730Z,241.00
2022-09-07T08:14:47.751Z,242.00
2022-09-07T08:15:47.751Z,242.00
2022-09-07T08:16:47.741Z,242.00
2022-09-07T08:17:47.712Z,241.00
2022-09-07T08:18:47.695Z,243.00
2022-09-07T08:19:47.739Z,244.00
2022-09-07T08:20:48.425Z,244.00
2022-09-07T08:21:47.723Z,245.00
2022-09-07T08:22:47.657Z,244.00
2022-09-07T08:23:47.600Z,248.00
2022-09-07T08:24:47.603Z,250.00
2022-09-07T08:25:47.602Z,252.00
2022-09-07T08:26:47.590Z,252.00
2022-09-07T08:27:47.572Z,252.00
2022-09-07T08:28:47.559Z,254.00
2022-09-07T08:29:47.537Z,253.00
2022-09-07T08:30:47.523Z,255.00
2022-09-07T08:31:47.594Z,256.00
2022-09-07T08:32:47.541Z,257.00
2022-09-07T08:33:47.485Z,257.00
2022-09-07T08:34:47.476Z,256.00
2022-09-07T08:35:47.506Z,255.00
2022-09-07T08:36:47.442Z,259.00
2022-09-07T08:37:47.445Z,259.00
2022-09-07T08:38:47.435Z,261.00
2022-09-07T08:39:47.482Z,260.00
2022-09-07T08:40:47.401Z,259.00
2022-09-07T08:41:47.377Z,259.00
2022-09-07T08:42:47.390Z,261.00
2022-09-07T08:43:49.206Z,262.00
2022-09-07T08:44:47.334Z,265.00
2022-09-07T08:45:47.367Z,265.00
2022-09-07T08:46:47.452Z,263.00
2022-09-07T08:47:47.316Z,264.00
2022-09-07T08:48:47.287Z,265.00
2022-09-07T08:49:47.308Z,267.00
2022-09-07T08:50:47.291Z,265.00
2022-09-07T08:51:47.275Z,261.00
2022-09-07T08:52:47.252Z,261.00
2022-09-07T08:53:47.323Z,261.00
2022-09-07T08:54:47.198Z,262.00
2022-09-07T08:55:47.205Z,257.00
2022-09-07T08:57:47.195Z,263.00
2022-09-07T08:58:49.855Z,265.00
2022-09-07T08:59:47.157Z,264.00
2022-09-07T09:00:47.134Z,263.00
2022-09-07T09:02:27.132Z,263.00
2022-09-07T09:03:28.753Z,265.00
2022-09-07T09:05:47.181Z,270.00
2022-09-07T09:06:47.159Z,269.00
2022-09-07T09:07:47.048Z,272.00
2022-09-07T09:08:47.050Z,273.00
2022-09-07T09:09:47.033Z,273.00
2022-09-07T09:10:47.047Z,272.00
2022-09-07T09:11:47.030Z,271.00
2022-09-07T09:12:46.987Z,271.00
2022-09-07T09:13:46.978Z,272.00
2022-09-07T09:14:46.983Z,274.00
2022-09-07T09:15:47.006Z,275.00
2022-09-07T09:16:46.947Z,277.00
2022-09-07T09:17:46.953Z,280.00
2022-09-07T09:18:46.928Z,281.00
2022-09-07T09:19:46.915Z,281.00
2022-09-07T09:20:46.905Z,281.00
2022-09-07T09:21:46.966Z,285.00
2022-09-07T09:22:46.872Z,284.00
2022-09-07T09:23:46.848Z,283.00
2022-09-07T09:24:46.865Z,282.00
2022-09-07T09:25:46.836Z,281.00
2022-09-07T09:26:46.891Z,281.00
2022-09-07T09:27:46.807Z,283.00
2022-09-07T09:28:46.774Z,285.00
2022-09-07T09:29:46.767Z,287.00
2022-09-07T09:30:46.916Z,288.00
2022-09-07T09:31:46.839Z,290.00
2022-09-07T09:32:46.769Z,290.00
2022-09-07T09:33:46.754Z,290.00
2022-09-07T09:34:46.723Z,288.00
2022-09-07T09:35:46.694Z,285.00
2022-09-07T09:36:46.704Z,285.00
2022-09-07T09:37:46.726Z,285.00
2022-09-07T09:38:46.669Z,288.00
2022-09-07T09:39:49.022Z,288.00
2022-09-07T09:40:46.642Z,287.00
2022-09-07T09:41:46.647Z,286.00
2022-09-07T09:42:46.606Z,287.00
2022-09-07T09:43:46.632Z,283.00
2022-09-07T09:44:46.608Z,283.00
2022-09-07T09:46:47.012Z,283.00
2022-09-07T09:47:46.607Z,282.00
2022-09-07T09:48:46.664Z,280.00
2022-09-07T09:49:46.528Z,281.00
2022-09-07T09:52:51.579Z,288.00
2022-09-07T09:53:46.482Z,290.00
2022-09-07T09:54:46.464Z,291.00
2022-09-07T09:55:46.481Z,286.00
2022-09-07T09:56:46.437Z,288.00
2022-09-07T09:59:04.858Z,288.00
2022-09-07T10:00:08.822Z,290.00
2022-09-07T10:04:46.364Z,298.00
2022-09-07T10:05:46.407Z,298.00
2022-09-07T10:06:46.313Z,301.00
2022-09-07T10:07:46.324Z,302.00
2022-09-07T10:08:46.326Z,303.00
2022-09-07T10:09:46.297Z,300.00
2022-09-07T10:10:46.292Z,297.00
2022-09-07T10:12:46.262Z,295.00
2022-09-07T10:13:46.848Z,295.00
2022-09-07T10:14:46.273Z,296.00
2022-09-07T10:15:46.257Z,293.00
2022-09-07T10:16:46.229Z,295.00
2022-09-07T10:17:46.200Z,297.00
2022-09-07T10:18:46.175Z,298.00
2022-09-07T10:19:46.185Z,295.00
2022-09-07T10:20:46.160Z,297.00
2022-09-07T10:21:46.136Z,299.00
2022-09-07T10:22:49.664Z,297.00
2022-09-07T10:23:46.349Z,287.00
2022-09-07T10:24:46.126Z,284.00
2022-09-07T10:25:46.154Z,288.00
2022-09-07T10:26:46.090Z,291.00
2022-09-07T10:27:46.089Z,287.00
2022-09-07T10:29:46.093Z,300.00
2022-09-07T10:30:46.103Z,302.00
2022-09-07T10:31:46.022Z,302.00
2022-09-07T10:32:46.032Z,299.00
2022-09-07T10:34:25.798Z,296.00
2022-09-07T10:34:46.000Z,292.00
2022-09-07T10:35:45.958Z,291.00
2022-09-07T10:36:45.983Z,290.00
2022-09-07T10:37:45.939Z,290.00
2022-09-07T10:38:45.928Z,287.00
2022-09-07T10:39:48.277Z,287.00
2022-09-07T10:40:45.904Z,287.00
2022-09-07T10:41:45.909Z,287.00
2022-09-07T10:43:45.919Z,288.00
2022-09-07T10:44:45.893Z,288.00
2022-09-07T10:45:45.858Z,288.00
2022-09-07T10:47:01.182Z,289.00
2022-09-07T10:47:45.812Z,285.00
2022-09-07T10:48:45.815Z,283.00
2022-09-07T10:50:46.033Z,280.00
2022-09-07T10:51:45.769Z,277.00
2022-09-07T10:52:45.791Z,275.00
2022-09-07T10:53:45.735Z,275.00
2022-09-07T10:54:45.756Z,276.00
2022-09-07T10:55:45.784Z,275.00
2022-09-07T10:56:45.781Z,275.00
2022-09-07T10:57:49.037Z,274.00
2022-09-07T10:59:01.856Z,273.00
2022-09-07T11:00:45.671Z,274.00
2022-09-07T11:01:45.832Z,274.00
2022-09-07T11:03:24.970Z,275.00
2022-09-07T11:03:45.945Z,275.00
2022-09-07T11:04:45.740Z,274.00
2022-09-07T11:05:46.504Z,274.00
2022-09-07T11:06:45.820Z,272.00
2022-09-07T11:07:45.688Z,272.00
2022-09-07T11:09:45.552Z,272.00
2022-09-07T11:10:45.534Z,270.00
2022-09-07T11:12:01.453Z,268.00
2022-09-07T11:12:45.525Z,269.00
2022-09-07T11:14:11.442Z,268.00
2022-09-07T11:14:45.486Z,269.00
2022-09-07T11:15:45.521Z,270.00
2022-09-07T11:16:52.647Z,270.00
2022-09-07T11:17:48.325Z,268.00
2022-09-07T11:18:45.446Z,268.00
2022-09-07T11:19:45.437Z,268.00
2022-09-07T11:20:45.412Z,268.00
2022-09-07T11:22:00.782Z,267.00
2022-09-07T11:22:45.387Z,266.00
2022-09-07T11:23:45.512Z,268.00
2022-09-07T11:24:45.463Z,268.00
2022-09-07T11:25:46.671Z,271.00
2022-09-07T11:26:45.351Z,269.00
2022-09-07T11:27:45.309Z,266.00
2022-09-07T11:28:45.615Z,267.00
2022-09-07T11:29:45.271Z,233.00
2022-09-07T11:30:45.317Z,257.00
2022-09-07T11:31:45.263Z,245.00
2022-09-07T11:32:45.256Z,280.00
2022-09-07T11:34:23.686Z,227.00
2022-09-07T11:34:45.345Z,268.00
2022-09-07T11:35:45.198Z,286.00
2022-09-07T11:36:45.204Z,291.00
2022-09-07T11:37:45.232Z,278.00
2022-09-07T11:38:45.249Z,291.00
2022-09-07T11:39:45.690Z,293.00
2022-09-07T11:40:45.191Z,279.00
2022-09-07T11:41:45.137Z,292.00
2022-09-07T11:42:45.402Z,297.00
2022-09-07T11:43:45.150Z,295.00
2022-09-07T11:44:45.105Z,290.00
2022-09-07T11:45:45.074Z,284.00
2022-09-07T11:46:45.527Z,283.00
2022-09-07T11:47:45.316Z,280.00
2022-09-07T11:48:45.112Z,278.00
2022-09-07T11:49:50.805Z,279.00
2022-09-07T11:50:45.308Z,276.00
2022-09-07T11:51:45.021Z,278.00
2022-09-07T11:52:44.983Z,276.00
2022-09-07T11:53:45.046Z,274.00
2022-09-07T11:54:44.968Z,273.00
2022-09-07T11:55:44.959Z,273.00
2022-09-07T11:56:45.647Z,273.00
2022-09-07T11:57:44.918Z,271.00
2022-09-07T11:58:44.924Z,269.00
2022-09-07T11:59:44.901Z,268.00
2022-09-07T12:00:44.893Z,267.00
2022-09-07T12:01:44.887Z,266.00
2022-09-07T12:02:58.842Z,266.00
2022-09-07T12:03:44.984Z,261.00
2022-09-07T12:04:44.889Z,262.00
2022-09-07T12:05:44.816Z,262.00
2022-09-07T12:06:44.857Z,261.00
2022-09-07T12:07:44.818Z,260.00
2022-09-07T12:08:44.845Z,257.00
2022-09-07T12:09:44.761Z,258.00
2022-09-07T12:10:44.750Z,260.00
2022-09-07T12:11:44.749Z,263.00
2022-09-07T12:12:44.751Z,266.00
2022-09-07T12:13:44.807Z,266.00
2022-09-07T12:14:44.746Z,268.00
2022-09-07T12:15:45.025Z,270.00
2022-09-07T12:16:44.709Z,271.00
2022-09-07T12:17:44.670Z,269.00
2022-09-07T12:18:44.688Z,269.00
2022-09-07T12:19:44.641Z,272.00
2022-09-07T12:20:45.165Z,270.00
2022-09-07T12:21:44.944Z,268.00
2022-09-07T12:22:44.667Z,268.00
2022-09-07T12:23:44.604Z,268.00
2022-09-07T12:24:44.569Z,267.00
2022-09-07T12:25:44.682Z,265.00
2022-09-07T12:26:44.550Z,265.00
2022-09-07T12:27:44.581Z,259.00
2022-09-07T12:28:44.766Z,93.00
2022-09-07T12:29:45.660Z,297.00
2022-09-07T12:30:44.692Z,317.00
2022-09-07T12:31:57.539Z,331.00
2022-09-07T12:33:00.191Z,309.00
2022-09-07T12:33:44.962Z,294.00
2022-09-07T12:34:44.568Z,286.00
2022-09-07T12:35:44.429Z,280.00
2022-09-07T12:36:44.657Z,277.00
2022-09-07T12:37:44.512Z,276.00
2022-09-07T12:38:44.556Z,274.00
2022-09-07T12:39:44.441Z,272.00
2022-09-07T12:40:44.428Z,273.00
2022-09-07T12:41:44.768Z,270.00
2022-09-07T12:42:44.839Z,268.00
2022-09-07T12:43:44.343Z,268.00
2022-09-07T12:44:44.524Z,270.00
2022-09-07T12:45:44.322Z,268.00
2022-09-07T12:46:44.855Z,268.00
2022-09-07T12:47:44.291Z,268.00
2022-09-07T12:48:44.285Z,268.00
2022-09-07T12:49:44.270Z,267.00
2022-09-07T12:50:44.304Z,265.00
2022-09-07T12:52:03.258Z,265.00
2022-09-07T12:52:44.217Z,262.00
2022-09-07T12:53:44.206Z,262.00
2022-09-07T12:54:44.204Z,261.00
2022-09-07T12:56:44.988Z,258.00